Time;durP1;ratioP1;P1;durP2;ratioP2;P2;SDS_P1;SDS_P2;PMS_P1;PMS_P2;Temp;Humidity;BMP_temperature;BMP_pressure;BME280_temperature;BME280_humidity;BME280_pressure;Samples;Min_cycle;Max_cycle;Signal;HPM_P1;HPM_P2
2023/05/27 00:00:49;;;;;;;2.42;1.48;;;7.50;99.90;;;;;;4968319;28;20140;-68
2023/05/27 00:03:17;;;;;;;4.05;1.23;;;7.40;99.90;;;;;;4967399;28;20051;-67
2023/05/27 00:05:44;;;;;;;1.88;1.38;;;7.40;99.90;;;;;;4966465;28;20058;-65
2023/05/27 00:08:12;;;;;;;1.85;1.05;;;7.40;99.90;;;;;;4967434;28;20133;-67
2023/05/27 00:10:39;;;;;;;3.50;1.35;;;7.40;99.90;;;;;;4966315;28;20074;-59
2023/05/27 00:13:05;;;;;;;6.32;1.35;;;7.30;99.90;;;;;;4969062;28;20074;-63
2023/05/27 00:15:32;;;;;;;5.22;1.60;;;7.30;99.90;;;;;;4967791;28;20504;-71
2023/05/27 00:18:02;;;;;;;2.75;1.45;;;7.30;99.90;;;;;;4961905;28;20069;-61
2023/05/27 00:20:32;;;;;;;2.35;1.52;;;7.30;99.90;;;;;;4963470;28;20094;-64
2023/05/27 00:23:00;;;;;;;3.78;1.80;;;7.30;99.90;;;;;;4965767;28;20169;-63
2023/05/27 00:25:26;;;;;;;2.38;1.40;;;7.20;99.90;;;;;;4964441;28;20054;-63
2023/05/27 00:27:54;;;;;;;3.65;1.77;;;7.20;99.90;;;;;;4964574;28;20066;-68
2023/05/27 00:30:21;;;;;;;4.75;1.70;;;7.20;99.90;;;;;;4963255;28;20097;-66
2023/05/27 00:32:48;;;;;;;6.32;1.98;;;7.10;99.90;;;;;;4966316;28;20051;-63
2023/05/27 00:35:16;;;;;;;2.92;1.80;;;7.10;99.90;;;;;;4964429;28;20055;-63
2023/05/27 00:37:43;;;;;;;2.70;1.50;;;7.00;99.90;;;;;;4967312;28;20557;-64
2023/05/27 00:40:11;;;;;;;2.28;1.40;;;7.00;99.90;;;;;;4965785;28;20086;-61
2023/05/27 00:42:38;;;;;;;3.88;1.35;;;7.00;99.90;;;;;;4963627;28;20577;-68
2023/05/27 00:45:06;;;;;;;4.10;1.35;;;7.00;99.90;;;;;;4966723;28;20101;-66
2023/05/27 00:47:34;;;;;;;1.67;1.40;;;7.00;99.90;;;;;;4966423;28;20058;-67
2023/05/27 00:50:03;;;;;;;4.13;1.80;;;7.00;99.90;;;;;;4964599;28;20126;-64
2023/05/27 00:52:30;;;;;;;4.65;1.17;;;7.00;99.90;;;;;;4979668;28;20062;-67
2023/05/27 00:54:59;;;;;;;4.10;1.50;;;6.90;99.90;;;;;;4966919;28;20059;-70
2023/05/27 00:57:26;;;;;;;3.65;1.40;;;6.90;99.90;;;;;;4965085;28;20062;-67
2023/05/27 00:59:53;;;;;;;2.70;1.23;;;6.90;99.90;;;;;;4964770;28;20116;-72
2023/05/27 01:02:20;;;;;;;3.92;1.50;;;6.80;99.90;;;;;;4965678;28;20051;-64
2023/05/27 01:04:48;;;;;;;5.13;1.50;;;6.80;99.90;;;;;;4965930;28;20134;-63
2023/05/27 01:07:29;;;;;;;3.85;1.50;;;6.80;99.90;;;;;;4961049;28;20450;-67
2023/05/27 01:10:18;;;;;;;2.80;1.85;;;6.80;99.90;;;;;;4964412;28;20456;-62
2023/05/27 01:13:06;;;;;;;2.08;1.20;;;6.80;99.90;;;;;;4965962;28;20061;-64
2023/05/27 01:15:33;;;;;;;4.45;2.00;;;6.70;99.90;;;;;;4953457;28;20061;-71
2023/05/27 01:18:03;;;;;;;1.17;0.80;;;6.70;99.90;;;;;;4963886;28;20381;-65
2023/05/27 01:20:31;;;;;;;1.65;1.02;;;6.70;99.90;;;;;;4963641;28;20051;-68
2023/05/27 01:22:59;;;;;;;2.83;1.95;;;6.70;99.90;;;;;;4963849;28;20385;-64
2023/05/27 01:25:26;;;;;;;2.25;1.55;;;6.70;99.90;;;;;;4966982;28;20794;-65
2023/05/27 01:27:56;;;;;;;2.33;1.75;;;6.70;99.90;;;;;;4958955;28;20057;-68
2023/05/27 01:30:23;;;;;;;3.20;1.83;;;6.70;99.90;;;;;;4970532;28;20481;-69
2023/05/27 01:33:08;;;;;;;4.93;1.20;;;6.60;99.90;;;;;;4963168;28;20055;-69
2023/05/27 01:35:52;;;;;;;2.90;1.65;;;6.60;99.90;;;;;;4977287;28;20488;-62
2023/05/27 01:38:24;;;;;;;4.03;1.27;;;6.60;99.90;;;;;;4963952;28;20051;-63
2023/05/27 01:40:52;;;;;;;3.38;2.00;;;6.60;99.90;;;;;;4969123;28;20058;-63
2023/05/27 01:43:20;;;;;;;3.22;2.20;;;6.60;99.90;;;;;;4964503;28;20449;-65
2023/05/27 01:45:47;;;;;;;1.95;1.02;;;6.60;99.90;;;;;;4960979;28;20054;-64
2023/05/27 01:48:14;;;;;;;2.65;1.70;;;6.60;99.90;;;;;;4965171;28;20117;-66
2023/05/27 01:50:41;;;;;;;3.45;1.48;;;6.60;99.90;;;;;;4962953;28;20059;-68
2023/05/27 01:53:11;;;;;;;2.80;1.17;;;6.60;99.90;;;;;;4980368;28;20047;-63
2023/05/27 01:55:38;;;;;;;3.50;1.80;;;6.50;99.90;;;;;;4966614;28;20444;-67
2023/05/27 01:58:05;;;;;;;3.70;2.30;;;6.50;99.90;;;;;;4978046;28;20046;-67
2023/05/27 02:00:32;;;;;;;2.33;1.40;;;6.50;99.90;;;;;;4964089;28;20050;-70
2023/05/27 02:02:59;;;;;;;1.67;1.27;;;6.50;99.90;;;;;;4979162;28;20047;-64
2023/05/27 02:05:27;;;;;;;4.80;1.55;;;6.50;99.90;;;;;;4964321;28;20043;-66
2023/05/27 02:07:55;;;;;;;6.28;1.70;;;6.50;99.90;;;;;;4977738;28;20157;-66
2023/05/27 02:10:24;;;;;;;5.07;1.85;;;6.40;99.90;;;;;;4962909;28;20145;-64
2023/05/27 02:12:52;;;;;;;3.15;1.48;;;6.30;99.90;;;;;;4961341;28;20069;-66
2023/05/27 02:15:23;;;;;;;2.88;1.25;;;6.30;99.90;;;;;;4965972;28;20046;-66
2023/05/27 02:17:55;;;;;;;2.42;1.35;;;6.20;99.90;;;;;;4950404;28;20051;-72
2023/05/27 02:20:23;;;;;;;1.70;1.58;;;6.20;99.90;;;;;;4962757;28;20069;-64
2023/05/27 02:22:51;;;;;;;4.43;2.70;;;6.20;99.90;;;;;;4965097;28;20057;-69
2023/05/27 02:25:18;;;;;;;4.15;1.17;;;6.20;99.90;;;;;;4978421;28;20054;-63
2023/05/27 02:27:48;;;;;;;8.82;1.35;;;6.20;99.90;;;;;;4960874;28;20453;-66
2023/05/27 02:30:15;;;;;;;1.17;1.08;;;6.20;99.90;;;;;;4971635;28;20121;-67
2023/05/27 02:32:43;;;;;;;3.33;2.05;;;6.10;99.90;;;;;;4963690;28;20057;-72
2023/05/27 02:35:15;;;;;;;3.65;1.40;;;6.10;99.90;;;;;;4947041;28;20050;-67
2023/05/27 02:37:42;;;;;;;4.00;1.10;;;6.10;99.90;;;;;;4978126;28;20134;-74
2023/05/27 02:40:10;;;;;;;3.38;2.15;;;6.10;99.90;;;;;;4960027;28;20057;-64
2023/05/27 02:42:37;;;;;;;5.38;1.80;;;6.10;99.90;;;;;;4975625;28;20093;-62
2023/05/27 02:45:05;;;;;;;2.63;1.75;;;6.10;99.90;;;;;;4962147;28;20094;-70
2023/05/27 02:47:34;;;;;;;1.13;0.90;;;6.10;99.90;;;;;;4953042;28;20312;-67
2023/05/27 02:50:01;;;;;;;3.50;2.50;;;6.00;99.90;;;;;;4959461;28;20035;-68
2023/05/27 02:52:28;;;;;;;1.90;1.30;;;6.00;99.90;;;;;;4965347;28;20104;-65
2023/05/27 02:54:55;;;;;;;2.72;1.33;;;6.00;99.90;;;;;;4961392;28;20649;-61
2023/05/27 02:57:22;;;;;;;1.45;1.35;;;6.00;99.90;;;;;;4962443;28;20051;-65
2023/05/27 02:59:49;;;;;;;4.55;1.77;;;6.00;99.90;;;;;;4952992;28;20110;-63
2023/05/27 03:02:16;;;;;;;2.85;1.40;;;6.00;99.90;;;;;;4963302;28;20144;-64
2023/05/27 03:04:44;;;;;;;3.50;1.13;;;6.00;99.90;;;;;;4962554;28;20122;-62
2023/05/27 03:07:11;;;;;;;2.45;1.42;;;6.00;99.90;;;;;;4977616;28;20051;-70
2023/05/27 03:09:38;;;;;;;2.88;1.70;;;6.10;99.90;;;;;;4964707;28;20074;-65
2023/05/27 03:12:05;;;;;;;1.30;1.20;;;6.10;99.90;;;;;;4961081;28;20058;-63
2023/05/27 03:14:32;;;;;;;1.20;1.10;;;6.10;99.90;;;;;;4961026;28;20054;-69
2023/05/27 03:16:59;;;;;;;2.28;1.05;;;6.10;99.90;;;;;;4979559;28;20492;-64
2023/05/27 03:19:26;;;;;;;9.15;1.95;;;6.10;99.90;;;;;;4967984;28;20191;-71
2023/05/27 03:21:53;;;;;;;2.10;1.20;;;6.20;99.90;;;;;;4965989;28;20049;-64
2023/05/27 03:24:20;;;;;;;4.18;1.10;;;6.10;99.90;;;;;;4968236;28;20058;-65
2023/05/27 03:26:47;;;;;;;1.75;1.48;;;6.10;99.90;;;;;;4971204;28;20054;-66
2023/05/27 03:29:15;;;;;;;1.83;1.25;;;6.20;99.90;;;;;;4965086;28;20062;-66
2023/05/27 03:31:42;;;;;;;2.60;1.90;;;6.20;99.90;;;;;;4967013;28;20109;-63
2023/05/27 03:34:14;;;;;;;1.92;1.45;;;6.30;99.90;;;;;;4975441;28;20672;-62
2023/05/27 03:36:42;;;;;;;1.88;1.10;;;6.30;99.90;;;;;;4971060;28;20113;-68
2023/05/27 03:39:10;;;;;;;2.28;1.02;;;6.30;99.90;;;;;;4956144;28;20099;-63
2023/05/27 03:41:41;;;;;;;2.72;1.30;;;6.40;99.90;;;;;;4965140;28;20082;-67
2023/05/27 03:44:11;;;;;;;;;;;6.50;99.90;;;;;;4979346;28;20058;-70
2023/05/27 03:46:38;;;;;;;1.95;1.40;;;6.60;99.90;;;;;;4960608;28;20661;-65
2023/05/27 03:49:05;;;;;;;4.82;1.65;;;6.60;99.90;;;;;;4965426;28;20051;-68
2023/05/27 03:51:32;;;;;;;2.50;1.70;;;6.70;99.90;;;;;;4967324;28;20054;-67
2023/05/27 03:53:59;;;;;;;2.90;1.48;;;6.70;99.90;;;;;;4964952;28;20054;-61
2023/05/27 03:56:26;;;;;;;4.03;1.40;;;6.80;99.90;;;;;;4967591;28;20062;-63
2023/05/27 03:58:53;;;;;;;2.08;1.40;;;6.90;99.90;;;;;;4963429;28;20072;-74
2023/05/27 04:01:20;;;;;;;4.35;1.08;;;7.10;99.90;;;;;;4962689;28;20153;-65
2023/05/27 04:03:48;;;;;;;3.15;1.55;;;7.20;99.90;;;;;;4966089;28;20055;-66
2023/05/27 04:06:15;;;;;;;2.38;1.50;;;7.30;99.90;;;;;;4963713;28;20061;-68
2023/05/27 04:08:42;;;;;;;3.95;1.58;;;7.50;99.90;;;;;;4964320;28;20165;-63
2023/05/27 04:11:12;;;;;;;3.58;1.65;;;7.70;99.90;;;;;;4961985;28;20113;-66
2023/05/27 04:13:40;;;;;;;5.60;1.50;;;7.90;99.90;;;;;;4964873;28;20061;-67
2023/05/27 04:16:07;;;;;;;4.00;1.60;;;8.10;99.90;;;;;;4964200;28;20124;-64
2023/05/27 04:18:35;;;;;;;2.83;2.00;;;8.30;99.90;;;;;;4965956;28;20057;-72
2023/05/27 04:21:04;;;;;;;3.15;1.00;;;8.50;99.90;;;;;;4963720;28;20072;-64
2023/05/27 04:23:31;;;;;;;7.88;1.38;;;8.60;99.90;;;;;;4964298;28;20050;-70
2023/05/27 04:25:58;;;;;;;5.50;1.67;;;8.80;99.90;;;;;;4976902;28;20055;-68
2023/05/27 04:28:30;;;;;;;3.10;1.25;;;9.00;99.90;;;;;;4965266;28;20051;-66
2023/05/27 04:30:57;;;;;;;2.50;1.42;;;9.30;99.90;;;;;;4963070;28;20047;-63
2023/05/27 04:33:33;;;;;;;1.73;1.20;;;9.50;99.90;;;;;;4982037;28;20066;-64
2023/05/27 04:36:00;;;;;;;1.33;1.02;;;9.60;99.90;;;;;;4959241;28;20545;-67
2023/05/27 04:38:31;;;;;;;2.50;1.40;;;9.80;99.90;;;;;;4964308;28;20130;-64
2023/05/27 04:41:03;;;;;;;3.40;2.22;;;9.90;99.90;;;;;;4965034;28;20062;-67
2023/05/27 04:44:09;;;;;;;2.03;0.95;;;9.90;99.90;;;;;;4975678;28;20050;-66
2023/05/27 04:46:44;;;;;;;4.30;1.08;;;10.10;99.90;;;;;;4977744;28;20046;-67
2023/05/27 04:49:11;;;;;;;2.55;1.55;;;10.20;99.90;;;;;;4965355;28;20070;-65
2023/05/27 04:51:39;;;;;;;2.10;0.80;;;10.30;99.90;;;;;;4967149;28;20302;-66
2023/05/27 04:54:07;;;;;;;10.55;3.15;;;10.30;99.90;;;;;;4963138;28;20133;-65
2023/05/27 04:56:35;;;;;;;1.55;1.35;;;10.40;99.90;;;;;;4965549;28;20615;-67
2023/05/27 04:59:02;;;;;;;1.52;1.02;;;10.40;99.90;;;;;;4965507;28;20729;-65
2023/05/27 05:01:48;;;;;;;1.38;0.82;;;10.40;99.90;;;;;;4981053;28;20086;-66
2023/05/27 05:04:23;;;;;;;3.03;1.23;;;10.40;99.90;;;;;;4978810;28;20432;-70
2023/05/27 05:06:55;;;;;;;1.67;1.38;;;10.50;99.90;;;;;;4962991;28;20051;-65
2023/05/27 05:09:23;;;;;;;1.08;0.98;;;10.50;99.90;;;;;;4981394;28;20487;-71
2023/05/27 05:11:51;;;;;;;1.60;1.50;;;10.60;99.90;;;;;;4964755;28;20694;-63
2023/05/27 05:14:18;;;;;;;3.28;1.08;;;10.60;99.90;;;;;;4964376;28;20129;-62
2023/05/27 05:16:46;;;;;;;0.93;0.82;;;10.60;99.90;;;;;;4982342;28;20137;-68
2023/05/27 05:19:13;;;;;;;1.23;0.98;;;10.70;99.90;;;;;;4958979;28;20610;-70
2023/05/27 05:21:41;;;;;;;1.40;1.00;;;10.80;99.90;;;;;;4964689;28;20106;-64
2023/05/27 05:24:10;;;;;;;3.97;1.00;;;10.70;99.90;;;;;;4959630;28;20058;-63
2023/05/27 05:26:38;;;;;;;1.88;0.90;;;10.70;99.90;;;;;;4980584;28;20061;-62
2023/05/27 05:29:05;;;;;;;0.90;0.90;;;10.70;99.90;;;;;;4964154;28;20058;-74
2023/05/27 05:31:33;;;;;;;1.75;1.00;;;10.80;99.90;;;;;;4979652;28;20360;-68
2023/05/27 05:34:00;;;;;;;1.50;0.75;;;10.80;99.90;;;;;;4965407;28;20066;-64
2023/05/27 05:36:29;;;;;;;11.60;1.42;;;10.80;99.90;;;;;;4977040;28;20074;-64
2023/05/27 05:39:00;;;;;;;1.75;1.45;;;10.90;99.90;;;;;;4980777;28;20636;-62
2023/05/27 05:41:27;;;;;;;2.38;1.08;;;10.90;99.90;;;;;;4983124;28;20757;-68
2023/05/27 05:43:55;;;;;;;1.13;0.90;;;10.90;99.90;;;;;;4960037;28;20058;-64
2023/05/27 05:46:22;;;;;;;1.42;1.08;;;11.00;99.90;;;;;;4967078;28;20417;-62
2023/05/27 05:48:53;;;;;;;1.20;0.82;;;11.10;99.90;;;;;;4981372;28;20413;-64
2023/05/27 05:51:30;;;;;;;2.33;1.08;;;11.10;99.90;;;;;;4982779;28;20058;-62
2023/05/27 05:53:58;;;;;;;2.83;0.85;;;11.10;99.90;;;;;;4971846;28;20043;-62
2023/05/27 05:56:27;;;;;;;1.50;0.98;;;11.20;99.90;;;;;;4966464;28;20043;-69
2023/05/27 05:58:54;;;;;;;0.82;0.68;;;11.30;99.90;;;;;;4963046;28;20043;-61
2023/05/27 06:01:23;;;;;;;1.15;0.80;;;11.40;99.90;;;;;;4969067;28;20053;-70
2023/05/27 06:03:50;;;;;;;1.50;1.40;;;11.40;99.90;;;;;;4964512;28;20058;-68
2023/05/27 06:06:29;;;;;;;1.65;0.70;;;11.40;99.90;;;;;;4951887;28;20063;-65
2023/05/27 06:09:25;;;;;;;3.38;0.68;;;11.50;99.90;;;;;;4962163;28;20225;-70
2023/05/27 06:11:55;;;;;;;;;;;11.60;99.90;;;;;;4970917;28;20063;-66
2023/05/27 06:14:23;;;;;;;3.45;0.77;;;11.70;99.90;;;;;;4981212;28;19979;-68
2023/05/27 06:16:52;;;;;;;2.83;0.82;;;11.80;99.90;;;;;;4964718;28;20050;-62
2023/05/27 06:19:19;;;;;;;2.55;0.88;;;11.90;99.90;;;;;;4969173;28;20066;-61
2023/05/27 06:21:46;;;;;;;2.10;1.15;;;11.90;99.90;;;;;;4980136;28;20065;-65
2023/05/27 06:24:32;;;;;;;2.65;0.85;;;11.90;99.90;;;;;;4963981;28;20054;-62
2023/05/27 06:27:10;;;;;;;0.90;0.65;;;11.90;99.90;;;;;;4968408;28;20054;-72
2023/05/27 06:29:38;;;;;;;1.55;0.60;;;12.00;99.90;;;;;;4964482;28;20082;-61
2023/05/27 06:32:05;;;;;;;2.80;0.80;;;12.00;99.90;;;;;;4976853;28;20118;-64
2023/05/27 06:34:32;;;;;;;1.75;0.88;;;12.10;99.90;;;;;;4982625;28;20428;-66
2023/05/27 06:36:59;;;;;;;1.35;0.90;;;12.10;99.90;;;;;;4963994;28;20074;-62
2023/05/27 06:39:26;;;;;;;1.52;0.80;;;12.20;99.90;;;;;;4966607;28;20686;-62
2023/05/27 06:41:53;;;;;;;1.88;1.00;;;12.20;99.90;;;;;;4964650;28;20497;-64
2023/05/27 06:44:43;;;;;;;2.00;0.70;;;12.20;99.90;;;;;;4962709;28;20078;-62
2023/05/27 06:47:15;;;;;;;2.97;1.05;;;12.30;99.90;;;;;;4962553;28;20271;-66
2023/05/27 06:49:42;;;;;;;1.02;0.80;;;12.40;99.90;;;;;;4967043;28;20062;-66
2023/05/27 06:52:10;;;;;;;3.53;1.42;;;12.40;99.90;;;;;;4968147;28;20043;-64
2023/05/27 06:55:19;;;;;;;1.95;1.08;;;12.40;99.90;;;;;;4980414;28;20062;-73
2023/05/27 06:58:06;;;;;;;1.75;0.90;;;12.50;99.90;;;;;;4985859;28;20070;-62
2023/05/27 07:00:55;;;;;;;1.13;0.80;;;12.50;99.90;;;;;;4968230;28;20573;-62
2023/05/27 07:03:41;;;;;;;1.27;0.90;;;12.60;99.90;;;;;;4966201;28;20062;-61
2023/05/27 07:06:11;;;;;;;2.75;1.20;;;12.60;99.90;;;;;;4967623;28;20398;-67
2023/05/27 07:08:45;;;;;;;1.42;0.85;;;12.70;99.90;;;;;;4968954;28;20610;-66
2023/05/27 07:11:18;;;;;;;1.50;0.70;;;12.80;99.90;;;;;;4971117;28;20057;-66
2023/05/27 07:13:45;;;;;;;2.78;1.17;;;12.80;99.90;;;;;;4971639;28;20047;-65
2023/05/27 07:16:13;;;;;;;2.35;1.00;;;12.90;99.90;;;;;;4984485;28;20043;-64
2023/05/27 07:18:40;;;;;;;1.77;0.80;;;12.90;99.90;;;;;;4983687;28;20059;-63
2023/05/27 07:21:08;;;;;;;1.58;1.33;;;13.00;99.90;;;;;;4969650;28;21308;-62
2023/05/27 07:23:35;;;;;;;3.45;1.10;;;13.10;99.90;;;;;;4966725;28;20058;-69
2023/05/27 07:26:14;;;;;;;5.30;1.30;;;13.10;99.90;;;;;;4971606;28;20074;-61
2023/05/27 07:28:42;;;;;;;6.18;0.95;;;13.20;99.90;;;;;;4970020;28;20059;-64
2023/05/27 07:31:20;;;;;;;3.20;1.67;;;13.30;99.10;;;;;;4958634;28;20054;-70
2023/05/27 07:33:54;;;;;;;3.25;0.98;;;13.40;97.60;;;;;;4962702;28;20047;-61
2023/05/27 07:36:21;;;;;;;2.88;1.08;;;13.50;97.10;;;;;;4960821;28;20473;-66
2023/05/27 07:38:48;;;;;;;1.83;0.70;;;13.60;96.80;;;;;;4966341;28;20059;-65
2023/05/27 07:41:15;;;;;;;1.27;0.70;;;13.70;95.90;;;;;;4965588;28;20054;-61
2023/05/27 07:43:43;;;;;;;4.93;0.95;;;13.70;94.10;;;;;;4967664;28;20492;-63
2023/05/27 07:46:10;;;;;;;3.53;1.20;;;13.80;93.60;;;;;;4963275;28;20050;-71
2023/05/27 07:48:39;;;;;;;1.13;0.80;;;13.80;92.90;;;;;;4964295;28;20117;-64
2023/05/27 07:51:07;;;;;;;0.95;0.75;;;13.90;94.40;;;;;;4974019;28;20051;-64
2023/05/27 07:53:36;;;;;;;1.70;1.15;;;13.90;97.30;;;;;;4965274;28;20062;-71
2023/05/27 07:56:03;;;;;;;1.58;0.80;;;13.70;98.20;;;;;;4979191;28;20109;-70
2023/05/27 07:58:30;;;;;;;1.67;0.73;;;13.70;98.30;;;;;;4955894;28;20093;-63
2023/05/27 08:01:08;;;;;;;1.30;0.90;;;13.70;97.20;;;;;;4980321;28;20042;-60
2023/05/27 08:03:35;;;;;;;1.90;1.30;;;13.70;97.30;;;;;;4979797;28;20089;-70
2023/05/27 08:06:21;;;;;;;2.85;0.90;;;13.60;99.90;;;;;;4959816;28;20193;-68
2023/05/27 08:09:08;;;;;;;4.65;1.63;;;13.60;99.90;;;;;;4981377;28;20536;-69
2023/05/27 08:12:07;;;;;;;3.50;0.70;;;13.60;99.90;;;;;;4974489;28;20540;-71
2023/05/27 08:14:49;;;;;;;1.50;1.17;;;13.60;99.90;;;;;;4979180;28;20114;-64
2023/05/27 08:17:28;;;;;;;4.28;0.95;;;13.50;99.90;;;;;;4963978;28;20055;-65
2023/05/27 08:20:09;;;;;;;;;;;13.60;99.90;;;;;;4960833;28;20575;-64
2023/05/27 08:22:56;;;;;;;1.13;0.73;;;13.60;99.90;;;;;;4966873;28;19934;-64
2023/05/27 08:25:42;;;;;;;2.22;1.08;;;13.60;99.90;;;;;;4962872;28;20162;-61
2023/05/27 08:28:34;;;;;;;2.30;0.95;;;13.60;99.90;;;;;;4962187;28;20069;-65
2023/05/27 08:31:24;;;;;;;1.60;0.80;;;13.70;99.90;;;;;;4962984;28;20059;-63
2023/05/27 08:33:54;;;;;;;5.18;1.20;;;13.80;99.90;;;;;;4976010;28;20102;-66
2023/05/27 08:36:22;;;;;;;1.45;0.90;;;13.70;99.90;;;;;;4960616;28;20050;-62
2023/05/27 08:38:51;;;;;;;1.05;0.90;;;13.80;99.90;;;;;;4963506;28;20667;-69
2023/05/27 08:41:29;;;;;;;1.58;0.70;;;13.90;98.60;;;;;;4962722;28;20130;-63
2023/05/27 08:43:57;;;;;;;3.05;1.05;;;14.00;99.90;;;;;;4976291;28;20146;-67
2023/05/27 08:46:48;;;;;;;1.98;1.02;;;14.00;99.90;;;;;;4970523;28;20134;-66
2023/05/27 08:49:17;;;;;;;2.83;1.92;;;13.90;99.90;;;;;;4962492;28;20113;-65
2023/05/27 08:51:45;;;;;;;3.38;1.40;;;14.00;99.90;;;;;;4965893;28;20097;-61
2023/05/27 08:54:12;;;;;;;3.42;0.70;;;13.80;99.90;;;;;;4977706;28;20046;-68
2023/05/27 08:56:40;;;;;;;0.82;0.82;;;13.60;99.90;;;;;;4963443;28;20059;-73
2023/05/27 08:59:11;;;;;;;0.88;0.80;;;13.60;99.90;;;;;;4963362;28;20157;-61
2023/05/27 09:01:40;;;;;;;2.05;1.00;;;13.80;99.90;;;;;;4979969;28;20137;-65
2023/05/27 09:04:07;;;;;;;3.75;2.05;;;13.70;99.90;;;;;;4960730;28;20149;-69
2023/05/27 09:06:34;;;;;;;2.80;1.05;;;13.70;99.90;;;;;;4963269;28;20462;-63
2023/05/27 09:09:01;;;;;;;2.13;0.95;;;13.80;99.90;;;;;;4962584;28;20554;-66
2023/05/27 09:11:30;;;;;;;0.82;0.70;;;13.90;99.90;;;;;;4964852;28;20059;-69
2023/05/27 09:13:57;;;;;;;1.50;1.15;;;14.00;99.90;;;;;;4963340;28;20258;-70
2023/05/27 09:16:24;;;;;;;1.75;1.38;;;14.00;99.90;;;;;;4975757;28;20453;-75
2023/05/27 09:18:51;;;;;;;1.92;0.80;;;14.00;99.90;;;;;;4964567;28;20090;-68
2023/05/27 09:21:18;;;;;;;0.73;0.63;;;14.00;99.90;;;;;;4961669;28;20501;-63
2023/05/27 09:23:45;;;;;;;2.95;1.08;;;14.10;99.90;;;;;;4958871;28;20062;-62
2023/05/27 09:26:13;;;;;;;1.92;0.88;;;14.20;99.90;;;;;;4961626;28;20113;-65
2023/05/27 09:28:40;;;;;;;2.38;0.88;;;14.30;99.90;;;;;;4963154;28;20058;-63
2023/05/27 09:31:09;;;;;;;0.90;0.75;;;14.20;99.90;;;;;;4968278;28;20121;-62
2023/05/27 09:33:38;;;;;;;1.42;0.73;;;14.30;99.90;;;;;;4964580;28;20050;-64
2023/05/27 09:36:08;;;;;;;4.80;1.08;;;14.40;99.90;;;;;;4961536;28;20129;-62
2023/05/27 09:38:35;;;;;;;1.52;0.90;;;14.40;99.90;;;;;;4964177;28;20532;-70
2023/05/27 09:41:03;;;;;;;1.17;0.70;;;14.40;99.90;;;;;;4964203;28;20074;-64
2023/05/27 09:43:30;;;;;;;3.03;0.68;;;14.60;99.90;;;;;;4964214;28;20055;-62
2023/05/27 09:46:03;;;;;;;3.03;0.98;;;14.70;99.30;;;;;;4961760;28;20050;-63
2023/05/27 09:48:33;;;;;;;1.65;1.02;;;14.70;98.70;;;;;;4962715;28;20053;-63
2023/05/27 09:51:01;;;;;;;1.13;0.70;;;14.70;98.20;;;;;;4957308;28;20777;-60
2023/05/27 09:53:28;;;;;;;2.30;0.82;;;14.70;99.10;;;;;;4964069;28;20142;-60
2023/05/27 09:55:56;;;;;;;1.55;0.88;;;14.90;99.70;;;;;;4962409;28;20109;-66
2023/05/27 09:58:24;;;;;;;2.00;0.85;;;15.00;98.40;;;;;;4957117;28;20105;-63
2023/05/27 10:00:51;;;;;;;1.73;0.70;;;15.10;98.10;;;;;;4961457;28;20054;-63
2023/05/27 10:03:23;;;;;;;1.17;0.88;;;15.10;98.40;;;;;;4963556;28;20527;-63
2023/05/27 10:05:51;;;;;;;3.47;0.93;;;15.10;96.40;;;;;;4975638;28;20053;-68
2023/05/27 10:08:19;;;;;;;2.25;0.68;;;15.10;96.80;;;;;;4965539;28;20291;-65
2023/05/27 10:10:49;;;;;;;1.88;0.90;;;15.20;95.40;;;;;;4965560;28;20090;-63
2023/05/27 10:13:20;;;;;;;0.73;0.73;;;15.20;94.90;;;;;;4965879;28;20045;-62
2023/05/27 10:15:51;;;;;;;;;;;15.10;95.60;;;;;;4964256;28;20516;-63
2023/05/27 10:18:29;;;;;;;1.48;0.60;;;15.20;96.20;;;;;;4964081;28;19977;-62
2023/05/27 10:20:58;;;;;;;2.35;1.00;;;15.30;96.10;;;;;;4964251;28;20077;-62
2023/05/27 10:23:28;;;;;;;0.52;0.52;;;15.50;92.90;;;;;;4963726;28;20063;-62
2023/05/27 10:26:08;;;;;;;4.97;0.85;;;15.50;94.10;;;;;;4963536;28;20084;-64
2023/05/27 10:28:42;;;;;;;1.25;0.70;;;15.50;93.60;;;;;;4964172;28;20062;-66
2023/05/27 10:31:13;;;;;;;2.15;0.90;;;15.70;93.00;;;;;;4961748;28;20082;-65
2023/05/27 10:33:48;;;;;;;1.70;0.80;;;15.80;92.80;;;;;;4966976;28;20054;-66
2023/05/27 10:36:23;;;;;;;0.98;0.77;;;15.90;91.70;;;;;;4961029;28;20153;-65
2023/05/27 10:38:58;;;;;;;0.80;0.50;;;16.10;91.50;;;;;;4963218;28;20101;-63
2023/05/27 10:41:25;;;;;;;3.42;0.82;;;16.30;91.60;;;;;;4961585;28;20422;-66
2023/05/27 10:43:58;;;;;;;1.92;0.80;;;16.60;92.20;;;;;;4976915;28;20162;-69
2023/05/27 10:46:26;;;;;;;1.70;0.95;;;16.80;89.70;;;;;;4965648;28;20082;-63
2023/05/27 10:48:53;;;;;;;1.55;0.70;;;16.70;85.00;;;;;;4967002;28;20047;-64
2023/05/27 10:51:32;;;;;;;1.13;0.70;;;16.70;85.40;;;;;;4965875;28;20059;-60
2023/05/27 10:54:03;;;;;;;1.55;0.68;;;16.60;86.00;;;;;;4959676;28;20051;-73
2023/05/27 10:56:51;;;;;;;1.38;0.85;;;16.60;84.00;;;;;;4979997;28;20070;-60
2023/05/27 10:59:22;;;;;;;0.73;0.73;;;16.80;82.30;;;;;;4968935;28;20051;-67
2023/05/27 11:01:53;;;;;;;3.30;0.85;;;16.90;79.70;;;;;;4965249;28;20109;-66
2023/05/27 11:04:23;;;;;;;0.88;0.82;;;17.00;82.30;;;;;;4963609;28;20059;-64
2023/05/27 11:07:00;;;;;;;1.75;1.00;;;17.10;81.30;;;;;;4968630;28;20054;-63
2023/05/27 11:09:51;;;;;;;1.90;0.80;;;17.20;81.70;;;;;;4966893;28;20062;-59
2023/05/27 11:12:20;;;;;;;1.17;0.95;;;17.10;81.60;;;;;;4963329;28;20098;-65
2023/05/27 11:14:54;;;;;;;1.25;0.52;;;17.30;80.90;;;;;;4961466;28;20042;-60
2023/05/27 11:17:23;;;;;;;1.88;1.08;;;17.40;80.00;;;;;;4961117;28;20216;-72
2023/05/27 11:19:50;;;;;;;0.88;0.80;;;17.40;79.80;;;;;;4960853;28;20681;-60
2023/05/27 11:22:19;;;;;;;3.53;1.67;;;17.40;79.00;;;;;;4965497;28;20524;-64
2023/05/27 11:25:02;;;;;;;3.15;0.70;;;17.40;78.50;;;;;;4962556;28;20074;-61
2023/05/27 11:27:36;;;;;;;1.65;0.90;;;17.40;77.40;;;;;;4965333;28;20058;-67
2023/05/27 11:30:11;;;;;;;1.50;0.73;;;17.20;77.10;;;;;;4959036;28;20162;-63
2023/05/27 11:32:41;;;;;;;2.28;0.88;;;17.30;77.50;;;;;;4963447;28;20409;-67
2023/05/27 11:35:17;;;;;;;0.85;0.50;;;17.20;78.20;;;;;;4964871;28;20153;-69
2023/05/27 11:37:48;;;;;;;1.85;0.50;;;17.30;78.30;;;;;;4967130;28;20065;-61
2023/05/27 11:40:15;;;;;;;2.13;0.70;;;17.30;77.10;;;;;;4965546;28;20551;-73
2023/05/27 11:42:46;;;;;;;3.08;0.95;;;17.30;76.70;;;;;;4969587;28;20078;-69
2023/05/27 11:45:18;;;;;;;4.00;1.55;;;17.30;76.70;;;;;;4965589;28;20085;-65
2023/05/27 11:47:50;;;;;;;1.48;0.80;;;17.50;78.10;;;;;;4965872;28;20492;-66
2023/05/27 11:50:21;;;;;;;1.33;0.85;;;17.80;76.60;;;;;;4961561;28;20543;-70
2023/05/27 11:52:52;;;;;;;1.92;0.55;;;17.90;76.20;;;;;;4963678;28;20058;-64
2023/05/27 11:55:19;;;;;;;1.10;0.80;;;18.10;74.80;;;;;;4965396;28;20144;-65
2023/05/27 11:57:46;;;;;;;1.42;0.85;;;18.30;74.20;;;;;;4967590;28;20058;-60
2023/05/27 12:00:13;;;;;;;1.25;0.52;;;18.30;73.50;;;;;;4966268;28;20492;-68
2023/05/27 12:02:41;;;;;;;1.00;0.80;;;18.40;69.60;;;;;;4968515;28;20055;-69
2023/05/27 12:05:09;;;;;;;2.28;0.85;;;18.40;70.40;;;;;;4963910;28;20058;-67
2023/05/27 12:07:49;;;;;;;2.10;0.80;;;18.60;72.00;;;;;;4966259;28;20050;-67
2023/05/27 12:10:16;;;;;;;1.23;0.70;;;18.70;72.00;;;;;;4963441;28;20054;-65
2023/05/27 12:12:44;;;;;;;3.55;0.90;;;18.90;67.60;;;;;;4966320;28;20050;-64
2023/05/27 12:15:11;;;;;;;2.47;0.73;;;19.10;70.60;;;;;;4966388;28;20097;-67
2023/05/27 12:17:38;;;;;;;2.05;0.93;;;19.30;68.80;;;;;;4965703;28;20045;-63
2023/05/27 12:20:06;;;;;;;1.65;0.95;;;19.30;70.60;;;;;;4961633;28;20065;-65
2023/05/27 12:22:33;;;;;;;4.55;1.25;;;19.40;68.20;;;;;;4965453;28;20051;-69
2023/05/27 12:25:00;;;;;;;1.20;0.60;;;19.30;71.00;;;;;;4965118;28;20035;-64
2023/05/27 12:27:26;;;;;;;1.30;0.85;;;19.20;72.50;;;;;;4965125;28;20097;-61
2023/05/27 12:29:53;;;;;;;1.25;0.60;;;19.40;71.00;;;;;;4963852;28;20109;-64
2023/05/27 12:32:21;;;;;;;0.65;0.50;;;19.80;68.30;;;;;;4965235;28;20076;-61
2023/05/27 12:34:48;;;;;;;2.50;0.70;;;19.80;66.80;;;;;;4963618;28;20728;-68
2023/05/27 12:37:16;;;;;;;1.25;1.00;;;20.00;66.70;;;;;;4964918;28;20125;-65
2023/05/27 12:39:43;;;;;;;1.50;0.65;;;20.10;66.90;;;;;;4964825;28;20055;-65
2023/05/27 12:42:09;;;;;;;0.80;0.45;;;20.00;66.50;;;;;;4961259;28;20061;-63
2023/05/27 12:44:36;;;;;;;0.85;0.43;;;20.30;67.20;;;;;;4964111;28;20073;-66
2023/05/27 12:47:03;;;;;;;1.15;0.60;;;20.30;66.90;;;;;;4964500;28;20623;-67
2023/05/27 12:49:31;;;;;;;0.60;0.60;;;20.30;65.60;;;;;;4967943;28;20050;-66
2023/05/27 12:51:59;;;;;;;1.00;0.70;;;20.20;65.60;;;;;;4964577;28;20050;-66
2023/05/27 12:54:26;;;;;;;1.77;0.80;;;20.30;66.20;;;;;;4966312;28;20130;-61
2023/05/27 12:56:53;;;;;;;0.82;0.65;;;20.50;67.10;;;;;;4966272;28;20066;-65
2023/05/27 12:59:20;;;;;;;2.15;1.08;;;20.60;65.70;;;;;;4961714;28;20576;-63
2023/05/27 13:01:47;;;;;;;3.60;0.85;;;20.40;66.00;;;;;;4964423;28;20057;-65
2023/05/27 13:04:15;;;;;;;0.65;0.57;;;20.40;65.80;;;;;;4962137;28;20133;-64
2023/05/27 13:06:41;;;;;;;1.42;0.82;;;20.20;64.60;;;;;;4963147;28;20102;-68